createdAt,value
2022-12-31T00:00:40.968Z,20.69
2022-12-31T00:03:08.043Z,20.69
2022-12-31T00:05:35.071Z,20.63
2022-12-31T00:08:02.005Z,20.63
2022-12-31T00:10:28.920Z,20.56
2022-12-31T00:12:55.883Z,20.56
2022-12-31T00:15:22.814Z,20.56
2022-12-31T00:17:49.726Z,20.50
2022-12-31T00:20:16.709Z,20.50
2022-12-31T00:22:43.636Z,20.50
2022-12-31T00:25:10.536Z,20.44
2022-12-31T00:27:37.487Z,20.44
2022-12-31T00:30:05.055Z,20.38
2022-12-31T00:32:32.097Z,20.38
2022-12-31T00:34:59.163Z,20.38
2022-12-31T00:37:26.084Z,20.31
2022-12-31T00:39:52.991Z,20.31
2022-12-31T00:42:19.980Z,20.31
2022-12-31T00:44:46.901Z,20.25
2022-12-31T00:47:13.816Z,20.25
2022-12-31T00:49:40.736Z,20.25
2022-12-31T00:52:07.651Z,20.19
2022-12-31T00:54:34.554Z,20.19
2022-12-31T00:57:01.491Z,20.19
2022-12-31T00:59:28.391Z,20.13
2022-12-31T01:01:55.414Z,20.13
2022-12-31T01:04:22.485Z,20.13
2022-12-31T01:06:49.454Z,20.06
2022-12-31T01:09:16.394Z,20.06
2022-12-31T01:11:43.359Z,20.06
2022-12-31T01:14:10.299Z,20.00
2022-12-31T01:16:37.206Z,20.00
2022-12-31T01:19:04.132Z,20.00
2022-12-31T01:21:31.105Z,20.00
2022-12-31T01:23:58.024Z,19.94
2022-12-31T01:26:24.967Z,19.94
2022-12-31T01:28:52.109Z,19.94
2022-12-31T01:31:19.107Z,19.94
2022-12-31T01:33:46.105Z,19.88
2022-12-31T01:36:13.073Z,19.88
2022-12-31T01:38:39.999Z,19.88
2022-12-31T01:41:06.917Z,19.88
2022-12-31T01:43:33.827Z,19.81
2022-12-31T01:46:00.826Z,19.81
2022-12-31T01:48:27.794Z,19.81
2022-12-31T01:50:54.727Z,19.81
2022-12-31T01:53:21.676Z,19.75
2022-12-31T01:55:48.625Z,19.75
2022-12-31T01:58:15.532Z,19.75
2022-12-31T02:00:42.457Z,19.69
2022-12-31T02:03:09.500Z,19.69
2022-12-31T02:05:36.477Z,19.69
2022-12-31T02:08:03.398Z,19.69
2022-12-31T02:10:30.348Z,19.63
2022-12-31T02:12:57.276Z,19.63
2022-12-31T02:15:24.203Z,19.63
2022-12-31T02:17:51.166Z,19.63
2022-12-31T02:20:18.062Z,19.63
2022-12-31T02:22:45.031Z,19.56
2022-12-31T02:25:12.076Z,19.56
2022-12-31T02:27:39.034Z,19.56
2022-12-31T02:30:05.944Z,19.50
2022-12-31T02:32:32.861Z,19.50
2022-12-31T02:34:59.808Z,19.50
2022-12-31T02:37:26.772Z,19.50
2022-12-31T02:39:53.691Z,19.44
2022-12-31T02:42:20.624Z,19.44
2022-12-31T02:44:47.542Z,19.44
2022-12-31T02:47:14.473Z,19.44
2022-12-31T02:49:41.389Z,19.38
2022-12-31T02:52:08.326Z,19.38
2022-12-31T02:54:35.232Z,19.38
2022-12-31T02:57:02.161Z,19.38
2022-12-31T02:59:29.102Z,19.38
2022-12-31T03:01:56.109Z,19.31
2022-12-31T03:04:23.120Z,19.31
2022-12-31T03:06:50.060Z,19.31
2022-12-31T03:09:16.971Z,19.31
2022-12-31T03:11:43.891Z,19.25
2022-12-31T03:14:10.837Z,19.25
2022-12-31T03:16:37.797Z,19.25
2022-12-31T03:19:04.806Z,19.25
2022-12-31T03:21:31.775Z,19.19
2022-12-31T03:23:58.701Z,19.19
2022-12-31T03:26:25.645Z,19.19
2022-12-31T03:28:52.613Z,19.19
2022-12-31T03:31:19.581Z,19.19
2022-12-31T03:33:46.490Z,19.19
2022-12-31T03:36:13.414Z,19.13
2022-12-31T03:38:40.350Z,19.13
2022-12-31T03:41:07.267Z,19.13
2022-12-31T03:43:34.234Z,19.13
2022-12-31T03:46:01.153Z,19.13
2022-12-31T03:48:28.095Z,19.13
2022-12-31T03:50:55.283Z,19.06
2022-12-31T03:53:22.195Z,19.06
2022-12-31T03:55:49.120Z,19.06
2022-12-31T03:58:16.036Z,19.06
2022-12-31T04:00:43.039Z,19.00
2022-12-31T04:03:10.115Z,19.00
2022-12-31T04:05:37.104Z,19.00
2022-12-31T04:08:04.001Z,19.00
2022-12-31T04:10:30.907Z,19.00
2022-12-31T04:12:57.845Z,19.00
2022-12-31T04:15:24.762Z,18.94
2022-12-31T04:17:51.682Z,18.94
2022-12-31T04:20:18.650Z,18.94
2022-12-31T04:22:45.548Z,18.94
2022-12-31T04:25:12.461Z,18.94
2022-12-31T04:27:39.434Z,18.88
2022-12-31T04:30:06.338Z,18.88
2022-12-31T04:32:33.262Z,18.88
2022-12-31T04:35:00.202Z,19.06
2022-12-31T04:37:27.118Z,19.38
2022-12-31T04:39:54.049Z,21.63
2022-12-31T04:42:20.977Z,27.44
2022-12-31T04:44:47.880Z,30.06
2022-12-31T04:47:20.158Z,30.50
2022-12-31T04:49:50.284Z,30.44
2022-12-31T04:52:17.244Z,30.31
2022-12-31T04:54:44.166Z,30.06
2022-12-31T04:57:11.104Z,29.81
2022-12-31T04:59:38.029Z,29.81
2022-12-31T05:02:05.134Z,29.69
2022-12-31T05:04:32.267Z,28.50
2022-12-31T05:06:59.188Z,26.69
2022-12-31T05:09:26.142Z,25.06
2022-12-31T05:11:53.073Z,23.94
2022-12-31T05:14:20.073Z,23.25
2022-12-31T05:16:47.004Z,22.38
2022-12-31T05:19:13.957Z,21.88
2022-12-31T05:21:40.974Z,24.31
2022-12-31T05:24:07.895Z,28.81
2022-12-31T05:26:34.852Z,30.81
2022-12-31T05:29:01.825Z,31.50
2022-12-31T05:31:28.777Z,30.25
2022-12-31T05:33:55.726Z,26.69
2022-12-31T05:36:22.640Z,25.69
2022-12-31T05:38:49.590Z,29.19
2022-12-31T05:41:16.529Z,31.63
2022-12-31T05:43:43.470Z,32.50
2022-12-31T05:46:10.470Z,32.31
2022-12-31T05:48:37.436Z,28.94
2022-12-31T05:51:04.344Z,27.38
2022-12-31T05:53:31.361Z,29.88
2022-12-31T05:55:58.287Z,32.31
2022-12-31T05:58:25.206Z,33.06
2022-12-31T06:00:52.193Z,33.00
2022-12-31T06:03:19.251Z,30.88
2022-12-31T06:05:46.267Z,28.94
2022-12-31T06:08:13.220Z,29.88
2022-12-31T06:10:40.208Z,32.31
2022-12-31T06:13:07.142Z,33.63
2022-12-31T06:15:34.178Z,33.56
2022-12-31T06:18:01.119Z,32.81
2022-12-31T06:20:28.037Z,32.44
2022-12-31T06:22:55.030Z,33.06
2022-12-31T06:25:21.954Z,34.06
2022-12-31T06:27:48.866Z,34.44
2022-12-31T06:30:15.818Z,33.94
2022-12-31T06:32:42.767Z,33.69
2022-12-31T06:35:09.777Z,33.81
2022-12-31T06:37:36.768Z,34.44
2022-12-31T06:40:03.741Z,34.81
2022-12-31T06:42:30.652Z,35.06
2022-12-31T06:44:57.603Z,35.31
2022-12-31T06:47:24.545Z,35.50
2022-12-31T06:49:51.472Z,35.69
2022-12-31T06:52:18.455Z,35.88
2022-12-31T06:54:45.391Z,36.06
2022-12-31T06:57:12.329Z,36.31
2022-12-31T06:59:39.293Z,36.44
2022-12-31T07:02:06.326Z,36.50
2022-12-31T07:04:33.356Z,36.44
2022-12-31T07:07:00.329Z,36.44
2022-12-31T07:09:27.267Z,36.44
2022-12-31T07:11:54.230Z,36.38
2022-12-31T07:14:21.229Z,36.38
2022-12-31T07:16:48.152Z,36.44
2022-12-31T07:19:15.150Z,36.50
2022-12-31T07:21:42.100Z,36.50
2022-12-31T07:24:09.043Z,36.44
2022-12-31T07:26:36.032Z,36.38
2022-12-31T07:29:02.955Z,36.44
2022-12-31T07:31:29.953Z,36.50
2022-12-31T07:33:56.982Z,36.50
2022-12-31T07:36:23.910Z,36.56
2022-12-31T07:38:50.814Z,36.56
2022-12-31T07:41:17.745Z,36.63
2022-12-31T07:43:44.721Z,36.63
2022-12-31T07:46:11.709Z,36.69
2022-12-31T07:48:38.719Z,36.69
2022-12-31T07:51:05.630Z,36.69
2022-12-31T07:53:32.562Z,36.50
2022-12-31T07:55:59.526Z,36.38
2022-12-31T07:58:26.473Z,36.38
2022-12-31T08:00:53.449Z,36.25
2022-12-31T08:03:20.411Z,36.13
2022-12-31T08:05:47.371Z,35.94
2022-12-31T08:08:14.305Z,35.81
2022-12-31T08:10:41.250Z,35.63
2022-12-31T08:13:08.164Z,35.44
2022-12-31T08:15:35.087Z,35.31
2022-12-31T08:18:02.125Z,35.31
2022-12-31T08:20:29.051Z,35.31
2022-12-31T08:22:55.957Z,35.31
2022-12-31T08:25:22.916Z,35.31
2022-12-31T08:27:49.833Z,35.25
2022-12-31T08:30:16.767Z,35.38
2022-12-31T08:32:43.764Z,35.44
2022-12-31T08:35:10.676Z,35.56
2022-12-31T08:37:37.594Z,35.63
2022-12-31T08:40:04.563Z,35.75
2022-12-31T08:42:31.486Z,35.88
2022-12-31T08:44:58.404Z,35.94
2022-12-31T08:47:25.362Z,36.00
2022-12-31T08:49:52.279Z,36.06
2022-12-31T08:52:19.213Z,36.19
2022-12-31T08:54:46.192Z,36.25
2022-12-31T08:57:13.116Z,36.31
2022-12-31T08:59:40.027Z,36.38
2022-12-31T09:02:07.268Z,36.44
2022-12-31T09:04:34.315Z,36.56
2022-12-31T09:07:01.295Z,36.63
2022-12-31T09:09:28.220Z,36.63
2022-12-31T09:11:55.153Z,36.56
2022-12-31T09:14:22.069Z,36.63
2022-12-31T09:16:49.023Z,36.63
2022-12-31T09:19:15.976Z,36.63
2022-12-31T09:21:42.901Z,36.69
2022-12-31T09:24:09.866Z,36.56
2022-12-31T09:26:36.800Z,36.50
2022-12-31T09:29:03.735Z,36.44
2022-12-31T09:31:30.740Z,36.44
2022-12-31T09:33:57.697Z,36.44
2022-12-31T09:36:24.611Z,36.44
2022-12-31T09:38:53.003Z,36.44
2022-12-31T09:41:19.932Z,36.44
2022-12-31T09:43:46.888Z,36.38
2022-12-31T09:46:13.882Z,36.19
2022-12-31T09:48:40.839Z,36.06
2022-12-31T09:51:07.795Z,35.88
2022-12-31T09:53:34.729Z,35.69
2022-12-31T09:56:01.641Z,35.56
2022-12-31T09:58:28.591Z,35.38
2022-12-31T10:00:55.553Z,35.00
2022-12-31T10:03:22.525Z,34.50
2022-12-31T10:05:49.567Z,34.75
2022-12-31T10:08:16.503Z,34.94
2022-12-31T10:10:43.437Z,35.13
2022-12-31T10:13:10.423Z,35.19
2022-12-31T10:15:37.355Z,35.31
2022-12-31T10:18:04.323Z,35.38
2022-12-31T10:20:31.247Z,35.44
2022-12-31T10:22:58.194Z,35.50
2022-12-31T10:25:38.111Z,35.56
2022-12-31T10:28:05.841Z,35.63
2022-12-31T10:30:32.823Z,35.69
2022-12-31T10:32:59.811Z,35.75
2022-12-31T10:35:26.789Z,35.81
2022-12-31T10:37:53.708Z,35.88
2022-12-31T10:40:20.664Z,35.94
2022-12-31T10:42:47.621Z,36.00
2022-12-31T10:45:14.551Z,36.06
2022-12-31T10:47:41.690Z,36.19
2022-12-31T10:50:08.633Z,36.25
2022-12-31T10:52:41.380Z,36.31
2022-12-31T10:55:08.872Z,36.38
2022-12-31T10:57:35.856Z,36.38
2022-12-31T11:00:02.790Z,36.31
2022-12-31T11:02:29.996Z,36.38
2022-12-31T11:04:57.104Z,36.38
2022-12-31T11:07:24.015Z,36.44
2022-12-31T11:09:50.937Z,36.44
2022-12-31T11:12:17.908Z,36.31
2022-12-31T11:14:44.826Z,36.19
2022-12-31T11:17:11.762Z,36.06
2022-12-31T11:19:38.757Z,35.88
2022-12-31T11:22:05.695Z,35.75
2022-12-31T11:24:32.608Z,35.56
2022-12-31T11:26:59.587Z,35.44
2022-12-31T11:29:26.521Z,35.31
2022-12-31T11:31:53.419Z,35.13
2022-12-31T11:34:20.368Z,35.00
2022-12-31T11:36:47.273Z,35.13
2022-12-31T11:39:14.224Z,35.25
2022-12-31T11:41:41.196Z,35.25
2022-12-31T11:44:08.124Z,35.31
2022-12-31T11:46:35.076Z,35.38
2022-12-31T11:49:02.046Z,35.44
2022-12-31T11:51:29.069Z,35.56
2022-12-31T11:53:55.985Z,35.63
2022-12-31T11:56:23.074Z,35.69
2022-12-31T11:58:50.040Z,35.75
2022-12-31T12:01:17.054Z,35.81
2022-12-31T12:03:44.028Z,35.88
2022-12-31T12:06:10.992Z,35.94
2022-12-31T12:08:37.928Z,36.00
2022-12-31T12:11:04.892Z,36.06
2022-12-31T12:13:31.861Z,36.19
2022-12-31T12:15:58.806Z,36.19
2022-12-31T12:18:25.823Z,36.25
2022-12-31T12:20:52.739Z,36.25
2022-12-31T12:23:19.640Z,36.19
2022-12-31T12:25:46.597Z,36.25
2022-12-31T12:28:13.540Z,36.25
2022-12-31T12:30:40.459Z,36.19
2022-12-31T12:33:07.501Z,36.06
2022-12-31T12:35:34.434Z,35.94
2022-12-31T12:38:01.374Z,35.81
2022-12-31T12:40:33.831Z,35.63
2022-12-31T12:43:01.372Z,35.44
2022-12-31T12:45:28.311Z,35.31
2022-12-31T12:47:55.253Z,35.13
2022-12-31T12:50:22.176Z,35.00
2022-12-31T12:52:49.196Z,34.81
2022-12-31T12:55:16.538Z,34.63
2022-12-31T12:57:43.630Z,34.63
2022-12-31T13:00:10.753Z,34.69
2022-12-31T13:02:37.866Z,34.75
2022-12-31T13:05:04.856Z,34.81
2022-12-31T13:07:31.803Z,34.94
2022-12-31T13:09:58.732Z,35.00
2022-12-31T13:12:25.685Z,35.13
2022-12-31T13:14:52.628Z,35.19
2022-12-31T13:17:19.588Z,35.31
2022-12-31T13:19:46.648Z,35.38
2022-12-31T13:22:13.585Z,35.44
2022-12-31T13:24:40.527Z,35.50
2022-12-31T13:27:07.497Z,35.56
2022-12-31T13:29:34.465Z,35.63
2022-12-31T13:32:01.426Z,35.75
2022-12-31T13:34:28.370Z,35.81
2022-12-31T13:36:55.371Z,35.88
2022-12-31T13:39:22.311Z,36.00
2022-12-31T13:41:49.222Z,36.06
2022-12-31T13:44:16.179Z,36.13
2022-12-31T13:46:43.106Z,36.13
2022-12-31T13:49:10.012Z,36.00
2022-12-31T13:51:36.997Z,35.94
2022-12-31T13:54:03.922Z,35.81
2022-12-31T13:56:30.826Z,35.69
2022-12-31T13:58:57.811Z,35.56
2022-12-31T14:01:28.221Z,35.44
2022-12-31T14:03:57.751Z,35.31
2022-12-31T14:06:24.675Z,35.31
2022-12-31T14:08:51.616Z,35.38
2022-12-31T14:11:18.575Z,35.38
2022-12-31T14:13:45.505Z,35.38
2022-12-31T14:16:12.478Z,35.38
2022-12-31T14:18:39.596Z,35.31
2022-12-31T14:21:06.562Z,35.38
2022-12-31T14:23:33.551Z,35.44
2022-12-31T14:26:00.469Z,35.44
2022-12-31T14:28:27.393Z,35.50
2022-12-31T14:30:54.354Z,35.56
2022-12-31T14:33:21.271Z,35.63
2022-12-31T14:35:48.224Z,35.69
2022-12-31T14:38:15.169Z,35.69
2022-12-31T14:40:42.097Z,35.75
2022-12-31T14:43:09.006Z,35.81
2022-12-31T14:45:35.992Z,35.88
2022-12-31T14:48:02.935Z,35.94
2022-12-31T14:50:29.881Z,36.00
2022-12-31T14:52:56.932Z,36.06
2022-12-31T14:55:23.881Z,36.00
2022-12-31T15:00:37.796Z,35.81
2022-12-31T15:03:04.803Z,35.69
2022-12-31T15:05:31.798Z,35.56
2022-12-31T15:07:58.746Z,35.44
2022-12-31T15:10:25.671Z,35.31
2022-12-31T15:12:52.653Z,35.13
2022-12-31T15:15:19.598Z,34.56
2022-12-31T15:17:46.567Z,33.94
2022-12-31T15:20:17.444Z,34.13
2022-12-31T15:22:44.861Z,34.44
2022-12-31T15:25:11.797Z,34.63
2022-12-31T15:27:38.870Z,34.69
2022-12-31T15:30:05.857Z,34.81
2022-12-31T15:32:32.845Z,34.88
2022-12-31T15:34:59.805Z,35.00
2022-12-31T15:37:26.721Z,35.06
2022-12-31T15:39:53.635Z,35.19
2022-12-31T15:45:07.536Z,35.19
2022-12-31T15:47:34.489Z,35.06
2022-12-31T15:50:01.420Z,35.00
2022-12-31T15:52:28.339Z,34.88
2022-12-31T15:54:55.293Z,34.81
2022-12-31T15:57:22.220Z,34.81
2022-12-31T15:59:49.163Z,34.81
2022-12-31T16:02:16.296Z,34.81
2022-12-31T16:04:43.362Z,34.75
2022-12-31T16:07:10.282Z,34.75
2022-12-31T16:09:37.234Z,34.75
2022-12-31T16:12:04.166Z,34.81
2022-12-31T16:14:31.109Z,34.88
2022-12-31T16:16:58.054Z,34.94
2022-12-31T16:19:25.006Z,35.00
2022-12-31T16:21:51.927Z,35.06
2022-12-31T16:24:18.912Z,35.19
2022-12-31T16:26:45.849Z,35.25
2022-12-31T16:29:12.771Z,35.31
2022-12-31T16:31:39.756Z,35.38
2022-12-31T16:34:06.723Z,35.44
2022-12-31T16:36:33.654Z,35.56
2022-12-31T16:39:00.617Z,35.63
2022-12-31T16:41:27.518Z,35.69
2022-12-31T16:43:54.472Z,35.63
2022-12-31T16:46:21.483Z,35.56
2022-12-31T16:48:48.449Z,35.44
2022-12-31T16:51:15.377Z,35.38
2022-12-31T16:53:42.388Z,35.25
2022-12-31T16:56:09.321Z,35.13
2022-12-31T16:58:36.236Z,35.00
2022-12-31T17:01:03.273Z,35.00
2022-12-31T17:03:30.254Z,35.19
2022-12-31T17:05:57.227Z,35.31
2022-12-31T17:08:24.167Z,35.38
2022-12-31T17:10:51.092Z,35.44
2022-12-31T17:13:28.297Z,35.56
2022-12-31T17:15:56.012Z,35.69
2022-12-31T17:18:22.948Z,35.81
2022-12-31T17:20:49.879Z,35.94
2022-12-31T17:23:16.825Z,36.00
2022-12-31T17:25:43.821Z,36.13
2022-12-31T17:28:10.744Z,36.19
2022-12-31T17:30:37.759Z,36.25
2022-12-31T17:33:04.673Z,36.31
2022-12-31T17:35:31.601Z,36.31
2022-12-31T17:37:58.549Z,36.25
2022-12-31T17:40:50.476Z,36.19
2022-12-31T17:43:12.407Z,36.13
2022-12-31T17:45:39.322Z,36.13
2022-12-31T17:48:06.239Z,36.00
2022-12-31T17:50:33.190Z,35.88
2022-12-31T17:53:00.117Z,35.69
2022-12-31T17:55:27.011Z,35.56
2022-12-31T17:57:54.335Z,35.38
2022-12-31T18:00:21.273Z,35.25
2022-12-31T18:02:48.255Z,35.06
2022-12-31T18:05:15.254Z,34.88
2022-12-31T18:07:42.226Z,34.88
2022-12-31T18:10:09.154Z,35.00
2022-12-31T18:12:36.071Z,35.00
2022-12-31T18:15:03.058Z,35.00
2022-12-31T18:17:29.972Z,35.06
2022-12-31T18:20:05.774Z,35.13
2022-12-31T18:22:33.214Z,35.25
2022-12-31T18:25:00.163Z,35.31
2022-12-31T18:27:27.105Z,35.38
2022-12-31T18:29:55.764Z,35.44
2022-12-31T18:32:26.064Z,35.56
2022-12-31T18:34:52.980Z,35.63
2022-12-31T18:37:22.234Z,35.69
2022-12-31T18:39:49.424Z,35.81
2022-12-31T18:42:16.391Z,35.88
2022-12-31T18:44:43.358Z,35.94
2022-12-31T18:47:10.277Z,35.88
2022-12-31T18:49:37.213Z,35.81
2022-12-31T18:52:04.199Z,35.69
2022-12-31T18:54:31.111Z,35.63
2022-12-31T18:56:58.020Z,35.50
2022-12-31T18:59:24.960Z,35.38
2022-12-31T19:01:51.957Z,35.19
2022-12-31T19:04:26.611Z,35.00
2022-12-31T19:06:54.359Z,34.75
2022-12-31T19:09:44.513Z,34.63
2022-12-31T19:12:08.194Z,34.69
2022-12-31T19:14:35.108Z,34.88
2022-12-31T19:19:27.852Z,35.13
2022-12-31T19:21:54.765Z,35.31
2022-12-31T19:24:21.703Z,35.50
2022-12-31T19:26:48.706Z,35.63
2022-12-31T19:29:15.665Z,35.75
2022-12-31T19:31:42.654Z,35.88
2022-12-31T19:34:09.616Z,36.00
2022-12-31T19:36:43.570Z,36.13
2022-12-31T19:39:10.912Z,36.25
2022-12-31T19:41:37.892Z,36.38
2022-12-31T19:44:04.823Z,36.50
2022-12-31T19:46:31.741Z,36.56
2022-12-31T19:48:58.748Z,36.56
2022-12-31T19:51:25.677Z,36.63
2022-12-31T19:53:52.590Z,36.56
2022-12-31T19:56:19.572Z,36.44
2022-12-31T19:58:46.529Z,36.44
2022-12-31T20:01:13.544Z,36.44
2022-12-31T20:03:40.662Z,36.31
2022-12-31T20:06:07.686Z,36.13
2022-12-31T20:08:34.638Z,35.81
2022-12-31T20:11:01.632Z,35.56
2022-12-31T20:13:28.587Z,35.31
2022-12-31T20:15:55.539Z,35.00
2022-12-31T20:18:22.462Z,34.75
2022-12-31T20:20:55.282Z,34.44
2022-12-31T20:23:22.829Z,34.13
2022-12-31T20:25:49.836Z,33.81
2022-12-31T20:28:16.756Z,33.50
2022-12-31T20:30:43.724Z,33.25
2022-12-31T20:33:15.774Z,33.00
2022-12-31T20:35:45.767Z,32.69
2022-12-31T20:38:12.720Z,32.44
2022-12-31T20:40:46.217Z,32.25
2022-12-31T20:43:13.807Z,32.00
2022-12-31T20:45:40.763Z,31.75
2022-12-31T20:48:07.762Z,31.50
2022-12-31T20:50:34.729Z,31.31
2022-12-31T20:53:01.644Z,31.13
2022-12-31T20:55:28.584Z,30.88
2022-12-31T20:57:55.525Z,30.63
2022-12-31T21:00:22.548Z,30.38
2022-12-31T21:02:56.638Z,30.19
2022-12-31T21:05:31.187Z,29.94
2022-12-31T21:07:58.218Z,29.69
2022-12-31T21:10:25.190Z,29.50
2022-12-31T21:12:52.085Z,29.31
2022-12-31T21:15:19.109Z,29.13
2022-12-31T21:17:46.032Z,28.94
2022-12-31T21:20:13.030Z,28.75
2022-12-31T21:22:39.951Z,28.63
2022-12-31T21:25:06.922Z,28.44
2022-12-31T21:27:33.839Z,28.31
2022-12-31T21:32:47.741Z,28.00
2022-12-31T21:35:42.262Z,27.88
2022-12-31T21:38:01.589Z,27.69
2022-12-31T21:40:28.506Z,27.56
2022-12-31T21:42:55.437Z,27.44
2022-12-31T21:45:22.423Z,27.31
2022-12-31T21:47:49.431Z,27.19
2022-12-31T21:50:16.372Z,27.06
2022-12-31T21:52:43.315Z,26.94
2022-12-31T21:55:10.239Z,26.81
2022-12-31T21:57:59.082Z,26.69
2022-12-31T22:00:41.967Z,26.56
2022-12-31T22:03:09.998Z,26.44
2022-12-31T22:05:37.014Z,26.31
2022-12-31T22:08:03.947Z,26.19
2022-12-31T22:10:34.936Z,26.06
2022-12-31T22:13:04.038Z,25.94
2022-12-31T22:15:31.056Z,25.81
2022-12-31T22:17:58.022Z,25.75
2022-12-31T22:20:27.526Z,25.63
2022-12-31T22:22:55.425Z,25.50
2022-12-31T22:25:22.364Z,25.38
2022-12-31T22:28:11.525Z,25.25
2022-12-31T22:30:36.218Z,25.13
2022-12-31T22:33:03.128Z,25.13
2022-12-31T22:35:30.039Z,25.13
2022-12-31T22:38:00.309Z,25.13
2022-12-31T22:40:32.299Z,25.13
2022-12-31T22:42:59.256Z,25.06
2022-12-31T22:45:26.170Z,24.88
2022-12-31T22:47:53.104Z,24.63
2022-12-31T22:50:20.057Z,24.25
2022-12-31T22:52:46.990Z,23.81
2022-12-31T22:55:13.935Z,23.38
2022-12-31T22:57:40.884Z,22.94
2022-12-31T23:00:07.803Z,22.56
2022-12-31T23:02:39.893Z,22.31
2022-12-31T23:05:15.190Z,22.06
2022-12-31T23:07:42.948Z,21.81
2022-12-31T23:10:09.899Z,21.69
2022-12-31T23:12:36.852Z,21.56
2022-12-31T23:15:03.781Z,21.50
2022-12-31T23:17:32.170Z,21.44
2022-12-31T23:19:59.248Z,21.38
2022-12-31T23:22:26.200Z,21.31
2022-12-31T23:24:53.152Z,21.25
2022-12-31T23:27:20.091Z,21.25
2022-12-31T23:29:47.764Z,21.19
2022-12-31T23:32:14.869Z,21.19
2022-12-31T23:34:41.803Z,21.19
2022-12-31T23:37:08.749Z,21.19
2022-12-31T23:39:35.659Z,21.13
2022-12-31T23:42:02.614Z,21.13
2022-12-31T23:44:29.562Z,21.13
2022-12-31T23:46:56.586Z,21.13
2022-12-31T23:49:23.585Z,21.13
2022-12-31T23:51:50.523Z,21.06
2022-12-31T23:54:17.458Z,21.06
2022-12-31T23:56:44.370Z,21.06
2022-12-31T23:59:11.319Z,21.06
